sensor_id;sensor_type;location;lat;lon;timestamp;P1;durP1;ratioP1;P2;durP2;ratioP2
11685;SDS011;5899;51.282;6.094;2022-12-29T00:00:09;1.88;;;1.50;;
11685;SDS011;5899;51.282;6.094;2022-12-29T00:02:38;1.70;;;1.50;;
11685;SDS011;5899;51.282;6.094;2022-12-29T00:05:08;1.83;;;1.40;;
11685;SDS011;5899;51.282;6.094;2022-12-29T00:07:44;1.50;;;1.40;;
11685;SDS011;5899;51.282;6.094;2022-12-29T00:10:10;1.33;;;1.23;;
11685;SDS011;5899;51.282;6.094;2022-12-29T00:12:41;1.50;;;1.40;;
11685;SDS011;5899;51.282;6.094;2022-12-29T00:15:27;1.95;;;1.40;;
11685;SDS011;5899;51.282;6.094;2022-12-29T00:18:09;2.17;;;1.50;;
11685;SDS011;5899;51.282;6.094;2022-12-29T00:20:39;2.20;;;1.60;;
11685;SDS011;5899;51.282;6.094;2022-12-29T00:23:25;1.50;;;1.20;;
11685;SDS011;5899;51.282;6.094;2022-12-29T00:26:24;1.50;;;1.40;;
11685;SDS011;5899;51.282;6.094;2022-12-29T00:29:08;1.60;;;1.50;;
11685;SDS011;5899;51.282;6.094;2022-12-29T00:32:06;1.38;;;1.27;;
11685;SDS011;5899;51.282;6.094;2022-12-29T00:34:52;1.50;;;1.40;;
11685;SDS011;5899;51.282;6.094;2022-12-29T00:37:46;1.50;;;1.40;;
11685;SDS011;5899;51.282;6.094;2022-12-29T00:40:31;2.20;;;1.50;;
11685;SDS011;5899;51.282;6.094;2022-12-29T00:43:29;1.40;;;1.30;;
11685;SDS011;5899;51.282;6.094;2022-12-29T00:46:19;1.55;;;1.30;;
11685;SDS011;5899;51.282;6.094;2022-12-29T00:48:49;1.70;;;1.50;;
11685;SDS011;5899;51.282;6.094;2022-12-29T00:51:44;1.40;;;1.30;;
11685;SDS011;5899;51.282;6.094;2022-12-29T00:54:22;1.48;;;1.30;;
11685;SDS011;5899;51.282;6.094;2022-12-29T00:56:55;3.85;;;1.45;;
11685;SDS011;5899;51.282;6.094;2022-12-29T00:59:22;1.50;;;1.40;;
11685;SDS011;5899;51.282;6.094;2022-12-29T01:01:56;1.70;;;1.30;;
11685;SDS011;5899;51.282;6.094;2022-12-29T01:04:42;1.65;;;1.30;;
11685;SDS011;5899;51.282;6.094;2022-12-29T01:07:24;1.20;;;1.10;;
11685;SDS011;5899;51.282;6.094;2022-12-29T01:10:05;1.30;;;1.20;;
11685;SDS011;5899;51.282;6.094;2022-12-29T01:12:42;1.42;;;1.30;;
11685;SDS011;5899;51.282;6.094;2022-12-29T01:15:11;1.65;;;1.20;;
11685;SDS011;5899;51.282;6.094;2022-12-29T01:18:05;1.90;;;1.30;;
11685;SDS011;5899;51.282;6.094;2022-12-29T01:23:27;1.73;;;1.20;;
11685;SDS011;5899;51.282;6.094;2022-12-29T01:26:32;1.90;;;1.10;;
11685;SDS011;5899;51.282;6.094;2022-12-29T01:30:02;1.20;;;1.10;;
11685;SDS011;5899;51.282;6.094;2022-12-29T01:31:30;1.20;;;1.10;;
11685;SDS011;5899;51.282;6.094;2022-12-29T01:34:05;1.50;;;1.20;;
11685;SDS011;5899;51.282;6.094;2022-12-29T01:37:02;1.60;;;1.33;;
11685;SDS011;5899;51.282;6.094;2022-12-29T01:39:32;1.20;;;1.10;;
11685;SDS011;5899;51.282;6.094;2022-12-29T01:42:22;1.67;;;1.20;;
11685;SDS011;5899;51.282;6.094;2022-12-29T01:47:48;1.33;;;1.10;;
11685;SDS011;5899;51.282;6.094;2022-12-29T01:50:20;1.30;;;1.20;;
11685;SDS011;5899;51.282;6.094;2022-12-29T01:52:54;1.60;;;1.10;;
11685;SDS011;5899;51.282;6.094;2022-12-29T01:55:27;1.73;;;1.20;;
11685;SDS011;5899;51.282;6.094;2022-12-29T01:58:18;2.00;;;1.30;;
11685;SDS011;5899;51.282;6.094;2022-12-29T02:00:50;1.38;;;1.20;;
11685;SDS011;5899;51.282;6.094;2022-12-29T02:03:18;1.70;;;1.30;;
11685;SDS011;5899;51.282;6.094;2022-12-29T02:06:01;1.33;;;1.23;;
11685;SDS011;5899;51.282;6.094;2022-12-29T02:08:29;1.50;;;1.20;;
11685;SDS011;5899;51.282;6.094;2022-12-29T02:11:05;1.92;;;1.42;;
11685;SDS011;5899;51.282;6.094;2022-12-29T02:13:41;14.85;;;2.75;;
11685;SDS011;5899;51.282;6.094;2022-12-29T02:19:15;2.08;;;1.30;;
11685;SDS011;5899;51.282;6.094;2022-12-29T02:21:50;1.97;;;1.73;;
11685;SDS011;5899;51.282;6.094;2022-12-29T02:30:10;2.67;;;1.42;;
11685;SDS011;5899;51.282;6.094;2022-12-29T02:32:45;2.85;;;1.67;;
11685;SDS011;5899;51.282;6.094;2022-12-29T02:35:30;2.83;;;1.42;;
11685;SDS011;5899;51.282;6.094;2022-12-29T02:38:00;1.73;;;1.42;;
11685;SDS011;5899;51.282;6.094;2022-12-29T02:40:45;1.95;;;1.52;;
11685;SDS011;5899;51.282;6.094;2022-12-29T02:43:31;2.20;;;1.30;;
11685;SDS011;5899;51.282;6.094;2022-12-29T02:46:03;1.70;;;1.45;;
11685;SDS011;5899;51.282;6.094;2022-12-29T02:51:56;2.00;;;1.50;;
11685;SDS011;5899;51.282;6.094;2022-12-29T02:54:35;3.50;;;1.70;;
11685;SDS011;5899;51.282;6.094;2022-12-29T02:57:09;2.37;;;1.40;;
11685;SDS011;5899;51.282;6.094;2022-12-29T02:59:54;1.45;;;1.35;;
11685;SDS011;5899;51.282;6.094;2022-12-29T03:05:34;8.32;;;2.30;;
11685;SDS011;5899;51.282;6.094;2022-12-29T03:08:26;1.73;;;1.30;;
11685;SDS011;5899;51.282;6.094;2022-12-29T03:10:58;2.00;;;1.30;;
11685;SDS011;5899;51.282;6.094;2022-12-29T03:14:02;1.55;;;1.20;;
11685;SDS011;5899;51.282;6.094;2022-12-29T03:16:52;1.48;;;1.30;;
11685;SDS011;5899;51.282;6.094;2022-12-29T03:19:21;2.00;;;1.30;;
11685;SDS011;5899;51.282;6.094;2022-12-29T03:22:03;2.10;;;1.23;;
11685;SDS011;5899;51.282;6.094;2022-12-29T03:24:49;1.40;;;1.30;;
11685;SDS011;5899;51.282;6.094;2022-12-29T03:27:18;1.83;;;1.27;;
11685;SDS011;5899;51.282;6.094;2022-12-29T03:30:00;1.80;;;1.27;;
11685;SDS011;5899;51.282;6.094;2022-12-29T03:32:41;1.63;;;1.40;;
11685;SDS011;5899;51.282;6.094;2022-12-29T03:35:36;1.83;;;1.30;;
11685;SDS011;5899;51.282;6.094;2022-12-29T03:38:11;1.63;;;1.13;;
11685;SDS011;5899;51.282;6.094;2022-12-29T03:40:52;2.28;;;1.40;;
11685;SDS011;5899;51.282;6.094;2022-12-29T03:43:26;1.85;;;1.20;;
11685;SDS011;5899;51.282;6.094;2022-12-29T03:45:53;1.80;;;1.20;;
11685;SDS011;5899;51.282;6.094;2022-12-29T03:48:44;2.67;;;1.30;;
11685;SDS011;5899;51.282;6.094;2022-12-29T03:51:15;1.60;;;1.50;;
11685;SDS011;5899;51.282;6.094;2022-12-29T03:53:55;1.58;;;1.20;;
11685;SDS011;5899;51.282;6.094;2022-12-29T04:05:21;1.30;;;1.20;;
11685;SDS011;5899;51.282;6.094;2022-12-29T04:07:57;1.50;;;1.13;;
11685;SDS011;5899;51.282;6.094;2022-12-29T04:11:01;2.20;;;1.40;;
11685;SDS011;5899;51.282;6.094;2022-12-29T04:13:35;1.67;;;1.20;;
11685;SDS011;5899;51.282;6.094;2022-12-29T04:16:45;1.38;;;1.27;;
11685;SDS011;5899;51.282;6.094;2022-12-29T04:19:09;2.60;;;1.37;;
11685;SDS011;5899;51.282;6.094;2022-12-29T04:21:35;1.45;;;1.27;;
11685;SDS011;5899;51.282;6.094;2022-12-29T04:24:02;1.23;;;1.10;;
11685;SDS011;5899;51.282;6.094;2022-12-29T04:26:48;1.95;;;1.30;;
11685;SDS011;5899;51.282;6.094;2022-12-29T04:29:45;1.60;;;1.33;;
11685;SDS011;5899;51.282;6.094;2022-12-29T04:32:11;1.75;;;1.30;;
11685;SDS011;5899;51.282;6.094;2022-12-29T04:37:47;2.10;;;1.20;;
11685;SDS011;5899;51.282;6.094;2022-12-29T04:40:25;1.17;;;0.95;;
11685;SDS011;5899;51.282;6.094;2022-12-29T04:42:53;1.08;;;0.93;;
11685;SDS011;5899;51.282;6.094;2022-12-29T04:45:23;1.48;;;1.00;;
11685;SDS011;5899;51.282;6.094;2022-12-29T04:47:55;1.67;;;1.27;;
11685;SDS011;5899;51.282;6.094;2022-12-29T04:50:26;1.35;;;1.10;;
11685;SDS011;5899;51.282;6.094;2022-12-29T04:52:58;1.35;;;1.08;;
11685;SDS011;5899;51.282;6.094;2022-12-29T04:55:28;1.20;;;1.10;;
11685;SDS011;5899;51.282;6.094;2022-12-29T04:58:02;2.00;;;1.20;;
11685;SDS011;5899;51.282;6.094;2022-12-29T05:00:33;1.20;;;1.10;;
11685;SDS011;5899;51.282;6.094;2022-12-29T05:05:52;1.67;;;1.10;;
11685;SDS011;5899;51.282;6.094;2022-12-29T05:08:20;1.88;;;1.33;;
11685;SDS011;5899;51.282;6.094;2022-12-29T05:10:50;2.72;;;1.30;;
11685;SDS011;5899;51.282;6.094;2022-12-29T05:13:18;2.15;;;1.38;;
11685;SDS011;5899;51.282;6.094;2022-12-29T05:18:58;3.22;;;1.58;;
11685;SDS011;5899;51.282;6.094;2022-12-29T05:21:32;1.85;;;1.15;;
11685;SDS011;5899;51.282;6.094;2022-12-29T05:24:01;1.85;;;1.27;;
11685;SDS011;5899;51.282;6.094;2022-12-29T05:26:28;2.80;;;1.13;;
11685;SDS011;5899;51.282;6.094;2022-12-29T05:28:56;3.90;;;1.50;;
11685;SDS011;5899;51.282;6.094;2022-12-29T05:31:25;2.55;;;1.30;;
11685;SDS011;5899;51.282;6.094;2022-12-29T05:33:51;2.47;;;1.25;;
11685;SDS011;5899;51.282;6.094;2022-12-29T05:36:31;3.33;;;1.38;;
11685;SDS011;5899;51.282;6.094;2022-12-29T05:42:02;2.40;;;1.30;;
11685;SDS011;5899;51.282;6.094;2022-12-29T05:44:42;3.08;;;1.23;;
11685;SDS011;5899;51.282;6.094;2022-12-29T05:47:22;3.17;;;1.38;;
11685;SDS011;5899;51.282;6.094;2022-12-29T05:49:58;2.88;;;1.50;;
11685;SDS011;5899;51.282;6.094;2022-12-29T05:52:29;2.53;;;1.45;;
11685;SDS011;5899;51.282;6.094;2022-12-29T05:55:00;3.35;;;1.50;;
11685;SDS011;5899;51.282;6.094;2022-12-29T06:00:19;2.60;;;1.40;;
11685;SDS011;5899;51.282;6.094;2022-12-29T06:02:48;3.58;;;1.20;;
11685;SDS011;5899;51.282;6.094;2022-12-29T06:05:29;2.10;;;1.30;;
11685;SDS011;5899;51.282;6.094;2022-12-29T06:09:37;2.97;;;1.20;;
11685;SDS011;5899;51.282;6.094;2022-12-29T06:10:51;2.63;;;1.30;;
11685;SDS011;5899;51.282;6.094;2022-12-29T06:13:19;2.60;;;1.30;;
11685;SDS011;5899;51.282;6.094;2022-12-29T06:21:21;2.83;;;1.33;;
11685;SDS011;5899;51.282;6.094;2022-12-29T06:24:04;1.92;;;1.30;;
11685;SDS011;5899;51.282;6.094;2022-12-29T06:26:34;2.58;;;1.40;;
11685;SDS011;5899;51.282;6.094;2022-12-29T06:29:14;2.27;;;1.40;;
11685;SDS011;5899;51.282;6.094;2022-12-29T06:31:42;4.40;;;1.50;;
11685;SDS011;5899;51.282;6.094;2022-12-29T06:34:25;3.17;;;1.75;;
11685;SDS011;5899;51.282;6.094;2022-12-29T06:36:55;2.77;;;1.53;;
11685;SDS011;5899;51.282;6.094;2022-12-29T06:39:26;3.45;;;1.48;;
11685;SDS011;5899;51.282;6.094;2022-12-29T06:41:55;3.95;;;1.60;;
11685;SDS011;5899;51.282;6.094;2022-12-29T06:44:53;2.80;;;1.50;;
11685;SDS011;5899;51.282;6.094;2022-12-29T06:47:12;5.00;;;1.83;;
11685;SDS011;5899;51.282;6.094;2022-12-29T06:49:45;6.13;;;2.07;;
11685;SDS011;5899;51.282;6.094;2022-12-29T06:55:19;2.45;;;1.33;;
11685;SDS011;5899;51.282;6.094;2022-12-29T06:57:53;5.25;;;1.48;;
11685;SDS011;5899;51.282;6.094;2022-12-29T07:00:28;3.28;;;1.80;;
11685;SDS011;5899;51.282;6.094;2022-12-29T07:02:55;6.15;;;1.80;;
11685;SDS011;5899;51.282;6.094;2022-12-29T07:05:26;4.43;;;1.93;;
11685;SDS011;5899;51.282;6.094;2022-12-29T07:07:57;4.85;;;2.10;;
11685;SDS011;5899;51.282;6.094;2022-12-29T07:13:27;4.85;;;1.85;;
11685;SDS011;5899;51.282;6.094;2022-12-29T07:18:56;3.28;;;1.50;;
11685;SDS011;5899;51.282;6.094;2022-12-29T07:21:24;5.88;;;1.90;;
11685;SDS011;5899;51.282;6.094;2022-12-29T07:23:58;4.82;;;1.90;;
11685;SDS011;5899;51.282;6.094;2022-12-29T07:26:50;4.82;;;1.80;;
11685;SDS011;5899;51.282;6.094;2022-12-29T07:29:21;5.07;;;1.90;;
11685;SDS011;5899;51.282;6.094;2022-12-29T07:31:48;4.65;;;1.80;;
11685;SDS011;5899;51.282;6.094;2022-12-29T07:34:14;4.97;;;1.95;;
11685;SDS011;5899;51.282;6.094;2022-12-29T07:36:43;5.18;;;1.73;;
11685;SDS011;5899;51.282;6.094;2022-12-29T07:39:44;4.32;;;1.75;;
11685;SDS011;5899;51.282;6.094;2022-12-29T07:45:23;6.23;;;1.80;;
11685;SDS011;5899;51.282;6.094;2022-12-29T07:48:03;3.90;;;1.80;;
11685;SDS011;5899;51.282;6.094;2022-12-29T07:52:41;3.92;;;1.85;;
11685;SDS011;5899;51.282;6.094;2022-12-29T07:53:40;6.05;;;2.13;;
11685;SDS011;5899;51.282;6.094;2022-12-29T07:59:14;3.67;;;2.03;;
11685;SDS011;5899;51.282;6.094;2022-12-29T08:07:52;5.55;;;1.88;;
11685;SDS011;5899;51.282;6.094;2022-12-29T08:19:33;4.63;;;2.13;;
11685;SDS011;5899;51.282;6.094;2022-12-29T08:25:05;4.27;;;2.10;;
11685;SDS011;5899;51.282;6.094;2022-12-29T08:27:39;5.00;;;1.80;;
11685;SDS011;5899;51.282;6.094;2022-12-29T08:30:29;7.32;;;2.47;;
11685;SDS011;5899;51.282;6.094;2022-12-29T08:33:02;5.85;;;2.00;;
11685;SDS011;5899;51.282;6.094;2022-12-29T08:38:45;5.80;;;1.90;;
11685;SDS011;5899;51.282;6.094;2022-12-29T08:41:17;3.83;;;2.00;;
11685;SDS011;5899;51.282;6.094;2022-12-29T08:43:45;6.28;;;2.33;;
11685;SDS011;5899;51.282;6.094;2022-12-29T08:46:12;4.38;;;2.00;;
11685;SDS011;5899;51.282;6.094;2022-12-29T08:48:38;5.83;;;1.80;;
11685;SDS011;5899;51.282;6.094;2022-12-29T08:51:07;5.07;;;1.98;;
11685;SDS011;5899;51.282;6.094;2022-12-29T08:53:35;5.63;;;1.88;;
11685;SDS011;5899;51.282;6.094;2022-12-29T08:56:02;5.72;;;1.90;;
11685;SDS011;5899;51.282;6.094;2022-12-29T08:58:31;5.43;;;2.10;;
11685;SDS011;5899;51.282;6.094;2022-12-29T09:01:01;6.15;;;2.00;;
11685;SDS011;5899;51.282;6.094;2022-12-29T09:03:29;4.63;;;1.95;;
11685;SDS011;5899;51.282;6.094;2022-12-29T09:05:58;5.25;;;1.90;;
11685;SDS011;5899;51.282;6.094;2022-12-29T09:08:24;5.77;;;2.00;;
11685;SDS011;5899;51.282;6.094;2022-12-29T09:11:05;6.30;;;2.15;;
11685;SDS011;5899;51.282;6.094;2022-12-29T09:13:33;7.45;;;2.30;;
11685;SDS011;5899;51.282;6.094;2022-12-29T09:15:59;6.23;;;2.50;;
11685;SDS011;5899;51.282;6.094;2022-12-29T09:18:26;6.93;;;2.17;;
11685;SDS011;5899;51.282;6.094;2022-12-29T09:20:55;5.88;;;1.80;;
11685;SDS011;5899;51.282;6.094;2022-12-29T09:23:23;6.00;;;2.33;;
11685;SDS011;5899;51.282;6.094;2022-12-29T09:25:54;6.72;;;2.10;;
11685;SDS011;5899;51.282;6.094;2022-12-29T09:28:23;5.15;;;2.40;;
11685;SDS011;5899;51.282;6.094;2022-12-29T09:30:55;6.25;;;2.30;;
11685;SDS011;5899;51.282;6.094;2022-12-29T09:33:23;4.83;;;1.90;;
11685;SDS011;5899;51.282;6.094;2022-12-29T09:35:58;6.70;;;2.30;;
11685;SDS011;5899;51.282;6.094;2022-12-29T09:38:40;6.28;;;1.98;;
11685;SDS011;5899;51.282;6.094;2022-12-29T09:41:10;6.43;;;2.03;;
11685;SDS011;5899;51.282;6.094;2022-12-29T09:43:43;7.30;;;2.05;;
11685;SDS011;5899;51.282;6.094;2022-12-29T09:46:18;6.32;;;2.10;;
11685;SDS011;5899;51.282;6.094;2022-12-29T09:48:54;5.53;;;1.90;;
11685;SDS011;5899;51.282;6.094;2022-12-29T09:51:24;5.53;;;2.35;;
11685;SDS011;5899;51.282;6.094;2022-12-29T09:53:53;5.88;;;2.15;;
11685;SDS011;5899;51.282;6.094;2022-12-29T09:56:21;7.15;;;2.65;;
11685;SDS011;5899;51.282;6.094;2022-12-29T09:58:49;7.22;;;2.33;;
11685;SDS011;5899;51.282;6.094;2022-12-29T10:01:26;4.60;;;1.85;;
11685;SDS011;5899;51.282;6.094;2022-12-29T10:04:02;5.20;;;2.40;;
11685;SDS011;5899;51.282;6.094;2022-12-29T10:06:33;4.13;;;1.88;;
11685;SDS011;5899;51.282;6.094;2022-12-29T10:09:23;4.95;;;1.90;;
11685;SDS011;5899;51.282;6.094;2022-12-29T10:11:58;8.67;;;2.33;;
11685;SDS011;5899;51.282;6.094;2022-12-29T10:15:02;4.15;;;2.30;;
11685;SDS011;5899;51.282;6.094;2022-12-29T10:17:39;4.68;;;1.92;;
11685;SDS011;5899;51.282;6.094;2022-12-29T10:22:58;6.65;;;2.00;;
11685;SDS011;5899;51.282;6.094;2022-12-29T10:25:31;8.27;;;2.40;;
11685;SDS011;5899;51.282;6.094;2022-12-29T10:28:03;5.93;;;2.30;;
11685;SDS011;5899;51.282;6.094;2022-12-29T10:30:33;6.20;;;2.40;;
11685;SDS011;5899;51.282;6.094;2022-12-29T10:33:03;5.88;;;2.00;;
11685;SDS011;5899;51.282;6.094;2022-12-29T10:38:26;7.68;;;2.40;;
11685;SDS011;5899;51.282;6.094;2022-12-29T10:40:56;6.53;;;2.60;;
11685;SDS011;5899;51.282;6.094;2022-12-29T10:43:27;5.40;;;2.20;;
11685;SDS011;5899;51.282;6.094;2022-12-29T10:45:58;7.22;;;2.53;;
11685;SDS011;5899;51.282;6.094;2022-12-29T10:48:28;8.13;;;2.53;;
11685;SDS011;5899;51.282;6.094;2022-12-29T10:51:01;5.90;;;2.63;;
11685;SDS011;5899;51.282;6.094;2022-12-29T10:53:30;6.10;;;2.10;;
11685;SDS011;5899;51.282;6.094;2022-12-29T10:56:00;6.65;;;2.13;;
11685;SDS011;5899;51.282;6.094;2022-12-29T10:58:27;6.65;;;2.22;;
11685;SDS011;5899;51.282;6.094;2022-12-29T11:00:55;7.65;;;2.70;;
11685;SDS011;5899;51.282;6.094;2022-12-29T11:03:36;6.33;;;2.40;;
11685;SDS011;5899;51.282;6.094;2022-12-29T11:06:08;7.97;;;2.17;;
11685;SDS011;5899;51.282;6.094;2022-12-29T11:08:38;4.90;;;2.00;;
11685;SDS011;5899;51.282;6.094;2022-12-29T11:11:06;6.68;;;2.78;;
11685;SDS011;5899;51.282;6.094;2022-12-29T11:13:47;7.43;;;2.17;;
11685;SDS011;5899;51.282;6.094;2022-12-29T11:16:26;6.00;;;2.38;;
11685;SDS011;5899;51.282;6.094;2022-12-29T11:19:03;7.90;;;2.17;;
11685;SDS011;5899;51.282;6.094;2022-12-29T11:21:51;6.45;;;2.03;;
11685;SDS011;5899;51.282;6.094;2022-12-29T11:24:24;5.10;;;2.10;;
11685;SDS011;5899;51.282;6.094;2022-12-29T11:26:53;6.38;;;2.40;;
11685;SDS011;5899;51.282;6.094;2022-12-29T11:29:29;7.35;;;2.45;;
11685;SDS011;5899;51.282;6.094;2022-12-29T11:32:10;6.13;;;2.15;;
11685;SDS011;5899;51.282;6.094;2022-12-29T11:34:40;7.18;;;2.65;;
11685;SDS011;5899;51.282;6.094;2022-12-29T11:37:10;7.65;;;2.45;;
11685;SDS011;5899;51.282;6.094;2022-12-29T11:39:39;9.63;;;2.97;;
11685;SDS011;5899;51.282;6.094;2022-12-29T11:42:28;8.80;;;2.67;;
11685;SDS011;5899;51.282;6.094;2022-12-29T11:44:57;7.15;;;2.30;;
11685;SDS011;5899;51.282;6.094;2022-12-29T11:47:35;8.17;;;2.30;;
11685;SDS011;5899;51.282;6.094;2022-12-29T11:53:15;5.88;;;2.17;;
11685;SDS011;5899;51.282;6.094;2022-12-29T11:55:50;7.72;;;2.50;;
11685;SDS011;5899;51.282;6.094;2022-12-29T11:58:21;6.75;;;2.17;;
11685;SDS011;5899;51.282;6.094;2022-12-29T12:01:13;5.97;;;2.40;;
11685;SDS011;5899;51.282;6.094;2022-12-29T12:03:44;6.70;;;2.17;;
11685;SDS011;5899;51.282;6.094;2022-12-29T12:06:28;6.13;;;2.20;;
11685;SDS011;5899;51.282;6.094;2022-12-29T12:09:05;6.15;;;2.20;;
11685;SDS011;5899;51.282;6.094;2022-12-29T12:11:45;8.38;;;2.88;;
11685;SDS011;5899;51.282;6.094;2022-12-29T12:14:13;5.47;;;2.43;;
11685;SDS011;5899;51.282;6.094;2022-12-29T12:16:59;7.80;;;2.47;;
11685;SDS011;5899;51.282;6.094;2022-12-29T12:19:32;6.68;;;2.20;;
11685;SDS011;5899;51.282;6.094;2022-12-29T12:22:00;8.45;;;2.90;;
11685;SDS011;5899;51.282;6.094;2022-12-29T12:24:39;6.85;;;2.20;;
11685;SDS011;5899;51.282;6.094;2022-12-29T12:27:12;7.55;;;2.13;;
11685;SDS011;5899;51.282;6.094;2022-12-29T12:29:46;6.88;;;2.22;;
11685;SDS011;5899;51.282;6.094;2022-12-29T12:32:18;5.07;;;2.30;;
11685;SDS011;5899;51.282;6.094;2022-12-29T12:34:46;7.72;;;2.40;;
11685;SDS011;5899;51.282;6.094;2022-12-29T12:40:12;5.75;;;2.13;;
11685;SDS011;5899;51.282;6.094;2022-12-29T12:42:47;5.85;;;2.30;;
11685;SDS011;5899;51.282;6.094;2022-12-29T12:45:24;8.70;;;3.13;;
11685;SDS011;5899;51.282;6.094;2022-12-29T12:48:06;6.07;;;2.20;;
11685;SDS011;5899;51.282;6.094;2022-12-29T12:50:44;5.63;;;2.38;;
11685;SDS011;5899;51.282;6.094;2022-12-29T12:53:19;4.85;;;1.95;;
11685;SDS011;5899;51.282;6.094;2022-12-29T12:55:58;7.50;;;2.38;;
11685;SDS011;5899;51.282;6.094;2022-12-29T12:58:45;7.30;;;2.78;;
11685;SDS011;5899;51.282;6.094;2022-12-29T13:01:19;6.10;;;2.43;;
11685;SDS011;5899;51.282;6.094;2022-12-29T13:04:00;7.77;;;2.57;;
11685;SDS011;5899;51.282;6.094;2022-12-29T13:06:33;7.47;;;2.60;;
11685;SDS011;5899;51.282;6.094;2022-12-29T13:09:17;7.40;;;3.03;;
11685;SDS011;5899;51.282;6.094;2022-12-29T13:11:59;5.63;;;2.30;;
11685;SDS011;5899;51.282;6.094;2022-12-29T13:14:30;7.32;;;2.72;;
11685;SDS011;5899;51.282;6.094;2022-12-29T13:17:02;8.77;;;2.60;;
11685;SDS011;5899;51.282;6.094;2022-12-29T13:19:40;6.00;;;2.17;;
11685;SDS011;5899;51.282;6.094;2022-12-29T13:22:13;5.72;;;2.40;;
11685;SDS011;5899;51.282;6.094;2022-12-29T13:24:47;8.03;;;2.47;;
11685;SDS011;5899;51.282;6.094;2022-12-29T13:27:31;7.30;;;2.38;;
11685;SDS011;5899;51.282;6.094;2022-12-29T13:30:01;5.20;;;2.27;;
11685;SDS011;5899;51.282;6.094;2022-12-29T13:32:35;6.05;;;1.92;;
11685;SDS011;5899;51.282;6.094;2022-12-29T13:35:14;5.88;;;2.42;;
11685;SDS011;5899;51.282;6.094;2022-12-29T13:37:50;5.65;;;2.10;;
11685;SDS011;5899;51.282;6.094;2022-12-29T13:40:21;7.35;;;2.60;;
11685;SDS011;5899;51.282;6.094;2022-12-29T13:45:35;6.10;;;2.05;;
11685;SDS011;5899;51.282;6.094;2022-12-29T13:48:05;7.60;;;2.13;;
11685;SDS011;5899;51.282;6.094;2022-12-29T13:50:33;6.00;;;2.30;;
11685;SDS011;5899;51.282;6.094;2022-12-29T13:53:06;6.97;;;2.20;;
11685;SDS011;5899;51.282;6.094;2022-12-29T13:55:39;4.43;;;2.10;;
11685;SDS011;5899;51.282;6.094;2022-12-29T13:58:26;8.68;;;2.50;;
11685;SDS011;5899;51.282;6.094;2022-12-29T14:00:57;6.07;;;2.10;;
11685;SDS011;5899;51.282;6.094;2022-12-29T14:03:43;6.80;;;2.20;;
11685;SDS011;5899;51.282;6.094;2022-12-29T14:06:32;5.45;;;2.00;;
11685;SDS011;5899;51.282;6.094;2022-12-29T14:09:05;6.22;;;2.20;;
11685;SDS011;5899;51.282;6.094;2022-12-29T14:11:44;5.53;;;2.30;;
11685;SDS011;5899;51.282;6.094;2022-12-29T14:14:20;4.40;;;1.85;;
11685;SDS011;5899;51.282;6.094;2022-12-29T14:16:54;5.47;;;2.00;;
11685;SDS011;5899;51.282;6.094;2022-12-29T14:19:23;6.43;;;2.30;;
11685;SDS011;5899;51.282;6.094;2022-12-29T14:21:53;5.57;;;2.03;;
11685;SDS011;5899;51.282;6.094;2022-12-29T14:27:07;6.88;;;2.13;;
11685;SDS011;5899;51.282;6.094;2022-12-29T14:29:55;6.97;;;2.40;;
11685;SDS011;5899;51.282;6.094;2022-12-29T14:32:40;4.78;;;2.28;;
11685;SDS011;5899;51.282;6.094;2022-12-29T14:35:38;7.05;;;2.40;;
11685;SDS011;5899;51.282;6.094;2022-12-29T14:38:07;5.88;;;2.22;;
11685;SDS011;5899;51.282;6.094;2022-12-29T14:40:40;6.22;;;2.10;;
11685;SDS011;5899;51.282;6.094;2022-12-29T14:46:01;5.13;;;2.45;;
11685;SDS011;5899;51.282;6.094;2022-12-29T14:48:46;6.97;;;2.10;;
11685;SDS011;5899;51.282;6.094;2022-12-29T14:51:17;5.13;;;2.13;;
11685;SDS011;5899;51.282;6.094;2022-12-29T14:53:48;5.07;;;2.00;;
11685;SDS011;5899;51.282;6.094;2022-12-29T14:56:18;7.55;;;2.50;;
11685;SDS011;5899;51.282;6.094;2022-12-29T14:58:50;7.32;;;2.25;;
11685;SDS011;5899;51.282;6.094;2022-12-29T15:01:22;5.05;;;2.10;;
11685;SDS011;5899;51.282;6.094;2022-12-29T15:03:53;7.95;;;2.30;;
11685;SDS011;5899;51.282;6.094;2022-12-29T15:06:22;6.13;;;2.20;;
11685;SDS011;5899;51.282;6.094;2022-12-29T15:09:00;8.40;;;2.40;;
11685;SDS011;5899;51.282;6.094;2022-12-29T15:11:31;5.60;;;2.17;;
11685;SDS011;5899;51.282;6.094;2022-12-29T15:16:48;6.47;;;2.40;;
11685;SDS011;5899;51.282;6.094;2022-12-29T15:22:21;5.03;;;2.15;;
11685;SDS011;5899;51.282;6.094;2022-12-29T15:24:56;4.70;;;2.10;;
11685;SDS011;5899;51.282;6.094;2022-12-29T15:27:26;7.75;;;3.42;;
11685;SDS011;5899;51.282;6.094;2022-12-29T15:30:03;6.25;;;2.72;;
11685;SDS011;5899;51.282;6.094;2022-12-29T15:32:39;5.67;;;2.70;;
11685;SDS011;5899;51.282;6.094;2022-12-29T15:35:20;6.35;;;2.80;;
11685;SDS011;5899;51.282;6.094;2022-12-29T15:38:14;6.88;;;2.70;;
11685;SDS011;5899;51.282;6.094;2022-12-29T15:40:42;5.97;;;2.10;;
11685;SDS011;5899;51.282;6.094;2022-12-29T15:43:18;7.15;;;2.60;;
11685;SDS011;5899;51.282;6.094;2022-12-29T15:46:09;6.45;;;2.30;;
11685;SDS011;5899;51.282;6.094;2022-12-29T15:48:44;6.50;;;2.13;;
11685;SDS011;5899;51.282;6.094;2022-12-29T15:51:22;5.30;;;2.17;;
11685;SDS011;5899;51.282;6.094;2022-12-29T15:54:18;6.87;;;2.30;;
11685;SDS011;5899;51.282;6.094;2022-12-29T15:57:05;6.53;;;2.30;;
11685;SDS011;5899;51.282;6.094;2022-12-29T15:59:45;6.95;;;2.28;;
11685;SDS011;5899;51.282;6.094;2022-12-29T16:02:32;8.13;;;2.70;;
11685;SDS011;5899;51.282;6.094;2022-12-29T16:05:08;6.60;;;2.38;;
11685;SDS011;5899;51.282;6.094;2022-12-29T16:08:16;6.45;;;2.78;;
11685;SDS011;5899;51.282;6.094;2022-12-29T16:10:56;7.13;;;2.87;;
11685;SDS011;5899;51.282;6.094;2022-12-29T16:13:33;7.60;;;2.90;;
11685;SDS011;5899;51.282;6.094;2022-12-29T16:16:12;9.07;;;4.07;;
11685;SDS011;5899;51.282;6.094;2022-12-29T16:18:53;9.52;;;3.30;;
11685;SDS011;5899;51.282;6.094;2022-12-29T16:21:21;8.90;;;3.42;;
11685;SDS011;5899;51.282;6.094;2022-12-29T16:24:21;3.50;;;2.25;;
11685;SDS011;5899;51.282;6.094;2022-12-29T16:26:38;2.10;;;1.40;;
11685;SDS011;5899;51.282;6.094;2022-12-29T16:29:06;2.40;;;1.50;;
11685;SDS011;5899;51.282;6.094;2022-12-29T16:31:34;2.70;;;1.50;;
11685;SDS011;5899;51.282;6.094;2022-12-29T16:37:02;3.90;;;1.90;;
11685;SDS011;5899;51.282;6.094;2022-12-29T16:39:47;2.78;;;1.75;;
11685;SDS011;5899;51.282;6.094;2022-12-29T16:42:46;8.55;;;2.47;;
11685;SDS011;5899;51.282;6.094;2022-12-29T16:48:15;9.82;;;2.88;;
11685;SDS011;5899;51.282;6.094;2022-12-29T16:51:19;3.10;;;2.15;;
11685;SDS011;5899;51.282;6.094;2022-12-29T16:53:40;2.83;;;1.85;;
11685;SDS011;5899;51.282;6.094;2022-12-29T16:56:21;6.95;;;4.78;;
11685;SDS011;5899;51.282;6.094;2022-12-29T16:59:04;9.68;;;2.50;;
11685;SDS011;5899;51.282;6.094;2022-12-29T17:01:54;4.97;;;3.10;;
11685;SDS011;5899;51.282;6.094;2022-12-29T17:04:37;8.90;;;2.72;;
11685;SDS011;5899;51.282;6.094;2022-12-29T17:07:04;4.70;;;3.50;;
11685;SDS011;5899;51.282;6.094;2022-12-29T17:09:42;3.97;;;2.00;;
11685;SDS011;5899;51.282;6.094;2022-12-29T17:12:16;4.20;;;2.03;;
11685;SDS011;5899;51.282;6.094;2022-12-29T17:14:51;4.03;;;1.88;;
11685;SDS011;5899;51.282;6.094;2022-12-29T17:17:34;4.45;;;1.90;;
11685;SDS011;5899;51.282;6.094;2022-12-29T17:20:02;2.67;;;1.58;;
11685;SDS011;5899;51.282;6.094;2022-12-29T17:23:05;3.35;;;1.58;;
11685;SDS011;5899;51.282;6.094;2022-12-29T17:25:20;2.80;;;1.70;;
11685;SDS011;5899;51.282;6.094;2022-12-29T17:30:52;2.40;;;1.45;;
11685;SDS011;5899;51.282;6.094;2022-12-29T17:33:35;12.85;;;11.55;;
11685;SDS011;5899;51.282;6.094;2022-12-29T17:36:21;2.85;;;2.17;;
11685;SDS011;5899;51.282;6.094;2022-12-29T17:42:09;6.30;;;5.43;;
11685;SDS011;5899;51.282;6.094;2022-12-29T17:44:52;5.80;;;4.70;;
11685;SDS011;5899;51.282;6.094;2022-12-29T17:53:34;4.55;;;2.92;;
11685;SDS011;5899;51.282;6.094;2022-12-29T17:56:09;3.63;;;2.38;;
11685;SDS011;5899;51.282;6.094;2022-12-29T17:59:19;5.57;;;2.58;;
11685;SDS011;5899;51.282;6.094;2022-12-29T18:01:50;5.47;;;2.80;;
11685;SDS011;5899;51.282;6.094;2022-12-29T18:04:31;5.88;;;3.03;;